Time;durP1;ratioP1;P1;durP2;ratioP2;P2;SDS_P1;SDS_P2;PMS_P1;PMS_P2;Temp;Humidity;BMP_temperature;BMP_pressure;BME280_temperature;BME280_humidity;BME280_pressure;Samples;Min_cycle;Max_cycle;Signal;HPM_P1;HPM_P2
2023/07/07 00:02:03;;;;;;;5.33;3.23;;;;;;;13.53;100.00;101765.47;4959214;28;20034;-96
2023/07/07 00:04:28;;;;;;;5.65;3.10;;;;;;;13.29;100.00;101744.22;4958926;28;20023;-96
2023/07/07 00:06:53;;;;;;;8.90;3.47;;;;;;;13.45;100.00;101774.81;4958657;28;20428;-96
2023/07/07 00:09:19;;;;;;;4.03;3.13;;;;;;;13.48;100.00;101788.59;4962224;28;20027;-96
2023/07/07 00:11:45;;;;;;;4.00;3.08;;;;;;;13.35;100.00;101767.41;4959512;28;20086;-96
2023/07/07 00:14:10;;;;;;;5.60;3.57;;;;;;;13.31;100.00;101779.78;4969427;28;20022;-96
2023/07/07 00:16:37;;;;;;;4.90;3.23;;;;;;;13.31;100.00;101779.78;4989192;28;20050;-96
2023/07/07 00:19:03;;;;;;;4.72;3.50;;;;;;;13.31;100.00;101780.56;4987633;28;20077;-96
2023/07/07 00:21:29;;;;;;;5.00;3.20;;;;;;;13.13;100.00;101749.44;4971873;28;20047;-96
2023/07/07 00:23:56;;;;;;;5.82;3.97;;;;;;;13.15;100.00;101747.28;4975409;28;20018;-96
2023/07/07 00:26:24;;;;;;;6.15;3.75;;;;;;;13.34;100.00;101779.25;4959082;28;20035;-96
2023/07/07 00:28:50;;;;;;;5.82;3.80;;;;;;;13.38;100.00;101785.75;4971307;28;20042;-96
2023/07/07 00:31:17;;;;;;;7.23;3.70;;;;;;;13.17;100.00;101758.63;4976427;28;20025;-96
2023/07/07 00:33:43;;;;;;;6.57;3.93;;;;;;;13.36;100.00;101787.88;4976694;28;20274;-96
2023/07/07 00:36:08;;;;;;;8.18;4.15;;;;;;;13.24;100.00;101768.38;4979458;28;20038;-96
2023/07/07 00:38:34;;;;;;;6.10;3.77;;;;;;;13.16;100.00;101748.91;4981542;28;20026;-96
2023/07/07 00:41:03;;;;;;;8.05;4.28;;;;;;;13.11;100.00;101754.25;4979371;28;20046;-96
2023/07/07 00:43:29;;;;;;;6.53;4.28;;;;;;;13.11;100.00;101759.66;4977539;28;20030;-96
2023/07/07 00:45:56;;;;;;;7.57;4.45;;;;;;;13.01;100.00;101743.38;4976671;28;20019;-96
2023/07/07 00:48:26;;;;;;;6.43;4.13;;;;;;;13.20;100.00;101767.25;4978516;28;20113;-96
2023/07/07 00:50:56;;;;;;;8.43;4.38;;;;;;;13.15;100.00;101768.81;4976665;28;20034;-96
2023/07/07 00:53:22;;;;;;;6.72;4.53;;;;;;;12.94;100.00;101750.84;4977252;28;20070;-96
2023/07/07 00:55:58;;;;;;;7.20;4.47;;;;;;;13.03;100.00;101760.91;4976789;28;20034;-96
2023/07/07 00:58:25;;;;;;;7.95;4.90;;;;;;;13.12;100.00;101765.81;4977534;28;20097;-95
2023/07/07 01:00:59;;;;;;;6.03;4.18;;;;;;;12.94;100.00;101750.84;4976402;28;20027;-96
2023/07/07 01:03:33;;;;;;;6.10;4.40;;;;;;;12.96;100.00;101762.97;4977456;28;20053;-96
2023/07/07 01:06:01;;;;;;;7.20;4.78;;;;;;;13.06;100.00;101783.78;4976745;28;20113;-96
2023/07/07 01:08:28;;;;;;;7.50;4.70;;;;;;;12.75;100.00;101747.63;4976887;28;20110;-96
2023/07/07 01:10:53;;;;;;;5.70;4.13;;;;;;;12.75;100.00;101761.06;4977898;28;20085;-96
2023/07/07 01:13:19;;;;;;;6.33;4.40;;;;;;;12.78;100.00;101774.81;4977641;28;20281;-96
2023/07/07 01:15:59;;;;;;;8.57;5.10;;;;;;;12.55;100.00;101744.44;4977144;28;20475;-96
2023/07/07 01:18:54;;;;;;;9.68;4.90;;;;;;;12.69;100.00;101773.66;4976455;28;20038;-96
2023/07/07 01:21:29;;;;;;;7.40;4.95;;;;;;;12.80;100.00;101790.72;4977902;28;20051;-96
2023/07/07 01:24:24;;;;;;;7.90;5.00;;;;;;;12.73;100.00;101790.91;4978148;28;20015;-96
2023/07/07 01:27:20;;;;;;;10.75;4.63;;;;;;;12.71;100.00;101790.34;4975690;28;20035;-96
2023/07/07 01:30:18;;;;;;;6.80;4.57;;;;;;;12.65;100.00;101796.72;4976475;28;20023;-96
2023/07/07 01:32:45;;;;;;;8.13;4.93;;;;;;;12.46;100.00;101772.00;4981403;28;20035;-96
2023/07/07 01:35:19;;;;;;;9.90;4.40;;;;;;;12.47;100.00;101774.44;4977640;28;20310;-96
2023/07/07 01:37:54;;;;;;;8.68;4.45;;;;;;;12.30;100.00;101755.66;5004626;23;20034;-96
2023/07/07 01:40:22;;;;;;;10.18;4.68;;;;;;;12.45;100.00;101779.22;4979601;28;20023;-96
2023/07/07 01:42:53;;;;;;;4.72;4.18;;;;;;;12.16;100.00;101732.84;4982040;28;20011;-96
2023/07/07 01:45:47;;;;;;;7.75;4.90;;;;;;;12.40;100.00;101787.25;4992283;28;20047;-96
2023/07/07 01:48:24;;;;;;;8.20;5.28;;;;;;;12.34;100.00;101788.22;4980493;28;20038;-96
2023/07/07 01:50:51;;;;;;;6.68;4.30;;;;;;;12.12;100.00;101759.41;4979925;28;20065;-94
2023/07/07 01:53:22;;;;;;;6.82;4.82;;;;;;;12.11;100.00;101776.56;4967609;28;20023;-94
2023/07/07 01:55:53;;;;;;;7.63;4.88;;;;;;;12.19;100.00;101783.41;4967143;28;20034;-95
2023/07/07 01:58:20;;;;;;;5.43;4.90;;;;;;;12.09;100.00;101770.63;4964293;28;20023;-95
2023/07/07 02:00:49;;;;;;;9.63;5.53;;;;;;;11.91;100.00;101761.72;4957031;28;20295;-96
2023/07/07 02:03:15;;;;;;;8.00;4.50;;;;;;;11.79;100.00;101734.94;4958600;28;20031;-96
2023/07/07 02:05:41;;;;;;;7.22;5.03;;;;;;;11.79;100.00;101739.53;4958298;28;20095;-96
2023/07/07 02:08:07;;;;;;;8.63;5.45;;;;;;;11.72;100.00;101736.16;4942977;29;20056;-96
2023/07/07 02:10:33;;;;;;;13.95;5.00;;;;;;;11.67;100.00;101736.91;4939977;29;20027;-96
2023/07/07 02:12:59;;;;;;;6.23;5.00;;;;;;;11.97;100.00;101781.44;4938809;28;20083;-96
2023/07/07 02:15:24;;;;;;;5.05;4.57;;;;;;;11.83;100.00;101767.53;4938830;29;20024;-96
2023/07/07 02:17:50;;;;;;;6.90;4.73;;;;;;;11.83;100.00;101767.53;4938119;29;20061;-96
2023/07/07 02:20:15;;;;;;;8.35;5.13;;;;;;;11.88;100.00;101764.91;4940230;29;20384;-96
2023/07/07 02:22:44;;;;;;;8.23;4.93;;;;;;;11.78;100.00;101772.78;4958901;28;20023;-96
2023/07/07 02:25:10;;;;;;;7.95;4.88;;;;;;;11.66;100.00;101756.75;4962394;28;20051;-96
2023/07/07 02:27:36;;;;;;;6.65;4.82;;;;;;;11.73;100.00;101778.06;4972844;28;20035;-96
2023/07/07 02:30:02;;;;;;;7.03;5.18;;;;;;;11.70;100.00;101781.22;4962200;28;20027;-96
2023/07/07 02:32:28;;;;;;;7.72;4.65;;;;;;;11.35;100.00;101732.88;4958773;28;20708;-96
2023/07/07 02:34:56;;;;;;;9.37;5.10;;;;;;;11.41;100.00;101744.50;4958086;28;20122;-96
2023/07/07 02:37:23;;;;;;;6.97;5.00;;;;;;;11.63;100.00;101784.91;4956213;28;20047;-96
2023/07/07 02:39:49;;;;;;;7.57;5.03;;;;;;;11.49;100.00;101773.66;4974372;28;20031;-96
2023/07/07 02:42:15;;;;;;;7.13;4.70;;;;;;;11.46;100.00;101768.75;4975452;28;20053;-96
2023/07/07 02:44:41;;;;;;;7.07;4.70;;;;;;;11.31;100.00;101745.16;4974718;28;20023;-95
2023/07/07 02:47:07;;;;;;;7.68;5.18;;;;;;;11.49;100.00;101762.91;4976980;28;20027;-95
2023/07/07 02:49:32;;;;;;;8.82;5.28;;;;;;;11.53;100.00;101782.03;4988345;28;20076;-95
2023/07/07 02:51:59;;;;;;;8.07;5.03;;;;;;;11.60;100.00;101790.75;4991193;28;20127;-95
2023/07/07 02:54:24;;;;;;;7.50;5.47;;;;;;;11.40;100.00;101763.53;4984565;28;20015;-95
2023/07/07 02:56:50;;;;;;;9.43;5.10;;;;;;;11.41;100.00;101770.53;4978893;28;20033;-95
2023/07/07 02:59:15;;;;;;;9.17;5.20;;;;;;;11.37;100.00;101775.56;4980538;28;20034;-95
2023/07/07 03:01:44;;;;;;;7.83;5.00;;;;;;;11.42;100.00;101794.44;4980241;28;20080;-95
2023/07/07 03:04:10;;;;;;;10.32;5.65;;;;;;;11.41;100.00;101797.38;4980105;28;20026;-95
2023/07/07 03:06:36;;;;;;;7.40;5.10;;;;;;;11.11;100.00;101755.50;4975168;28;20028;-95
2023/07/07 03:09:02;;;;;;;7.55;4.93;;;;;;;11.28;100.00;101785.88;4962472;28;20023;-95
2023/07/07 03:11:28;;;;;;;8.43;5.27;;;;;;;11.28;100.00;101783.19;4960448;28;20510;-95
2023/07/07 03:13:53;;;;;;;7.25;4.45;;;;;;;11.19;100.00;101768.50;4961930;28;20038;-96
2023/07/07 03:16:30;;;;;;;6.63;5.53;;;;;;;11.08;100.00;101756.78;4961075;28;20023;-95
2023/07/07 03:25:46;;;;;;;8.07;4.93;;;;;;;11.19;100.00;101789.97;4976441;28;20039;-95
2023/07/07 03:28:12;;;;;;;9.97;4.93;;;;;;;11.20;100.00;101791.59;4991827;28;20022;-95
2023/07/07 03:30:37;;;;;;;8.20;5.30;;;;;;;11.22;100.00;101792.19;4995758;28;20054;-95
2023/07/07 03:33:02;;;;;;;8.13;5.57;;;;;;;11.24;100.00;101798.13;4999037;28;20021;-95
2023/07/07 03:35:28;;;;;;;9.27;5.20;;;;;;;11.26;100.00;101806.75;4998703;28;20029;-95
2023/07/07 03:37:53;;;;;;;7.07;5.53;;;;;;;11.23;100.00;101809.13;4983447;28;20030;-94
2023/07/07 03:40:19;;;;;;;7.63;5.03;;;;;;;11.15;100.00;101805.75;4998615;28;20147;-95
2023/07/07 03:42:44;;;;;;;6.37;4.90;;;;;;;11.03;100.00;101784.31;4995006;28;20081;-95
2023/07/07 03:45:13;;;;;;;7.72;5.20;;;;;;;11.20;100.00;101800.47;4977708;28;20030;-94
2023/07/07 03:47:39;;;;;;;8.25;5.22;;;;;;;11.09;100.00;101784.41;4980864;28;20023;-96
2023/07/07 03:50:05;;;;;;;6.17;5.07;;;;;;;11.25;100.00;101807.81;4981961;28;20023;-94
2023/07/07 03:52:31;;;;;;;7.25;5.40;;;;;;;11.08;100.00;101782.78;4980136;28;20038;-95
2023/07/07 03:54:57;;;;;;;7.80;5.63;;;;;;;11.20;100.00;101796.97;4979842;28;20027;-95
2023/07/07 03:57:22;;;;;;;7.17;5.27;;;;;;;10.96;100.00;101761.34;4981228;28;20038;-95
2023/07/07 03:59:48;;;;;;;6.33;5.20;;;;;;;11.29;100.00;101810.81;4978672;28;20030;-95
2023/07/07 04:02:14;;;;;;;7.25;5.28;;;;;;;11.20;100.00;101786.25;4960827;28;20035;-96
2023/07/07 04:04:39;;;;;;;6.87;5.37;;;;;;;11.25;100.00;101797.06;4960015;28;20081;-96
2023/07/07 04:07:05;;;;;;;7.27;4.90;;;;;;;11.26;100.00;101789.84;4959955;28;20270;-96
2023/07/07 04:09:30;;;;;;;7.03;5.77;;;;;;;11.06;100.00;101765.06;4960196;28;20110;-95
2023/07/07 04:11:55;;;;;;;8.90;5.43;;;;;;;11.41;100.00;101808.91;4960132;28;20083;-96
2023/07/07 04:14:26;;;;;;;6.88;5.53;;;;;;;11.46;100.00;101810.91;4960088;28;20110;-95
2023/07/07 04:24:27;;;;;;;7.28;5.85;;;;;;;11.60;100.00;101820.28;4953141;29;20044;-95
2023/07/07 04:26:53;;;;;;;6.95;5.32;;;;;;;11.50;100.00;101795.94;4958212;28;20020;-96
2023/07/07 04:29:19;;;;;;;7.17;5.47;;;;;;;11.62;100.00;101804.75;4940647;29;20054;-94
2023/07/07 04:31:45;;;;;;;5.80;4.80;;;;;;;11.75;100.00;101806.34;4939936;29;20276;-95
2023/07/07 04:34:12;;;;;;;11.00;5.35;;;;;;;11.93;100.00;101820.59;4962357;28;20045;-95
2023/07/07 04:36:38;;;;;;;8.85;5.20;;;;;;;11.97;100.00;101819.03;4977976;28;20027;-95
2023/07/07 04:39:04;;;;;;;8.65;4.93;;;;;;;11.97;100.00;101810.97;4978000;28;20079;-94
2023/07/07 04:41:30;;;;;;;6.13;5.20;;;;;;;11.91;100.00;101795.84;4978192;28;20039;-96
2023/07/07 04:43:59;;;;;;;8.25;5.32;;;;;;;12.04;100.00;101813.56;4977716;28;20019;-96
2023/07/07 04:46:28;;;;;;;10.73;5.40;;;;;;;12.01;100.00;101790.66;4977394;28;20015;-96
2023/07/07 04:48:54;;;;;;;9.43;5.95;;;;;;;12.24;100.00;101815.75;4977516;28;20023;-95
2023/07/07 04:51:20;;;;;;;8.23;5.88;;;;;;;12.33;100.00;101798.13;4992020;28;20039;-96
2023/07/07 04:53:46;;;;;;;9.00;6.00;;;;;;;12.47;100.00;101795.13;4959113;29;20008;-96
2023/07/07 04:56:16;;;;;;;8.77;5.73;;;;;;;13.39;100.00;101813.50;4957300;29;20291;-96
2023/07/07 04:58:42;;;;;;;8.55;5.75;;;;;;;15.02;100.00;101816.09;4949791;29;20028;-95
2023/07/07 05:01:21;;;;;;;6.93;5.45;;;;;;;16.61;99.94;101826.28;4943835;28;20035;-96
2023/07/07 05:03:51;;;;;;;7.75;4.68;;;;;;;17.98;90.34;101832.41;4952717;28;20012;-96
2023/07/07 05:06:18;;;;;;;7.90;5.05;;;;;;;18.83;80.44;101806.88;4973921;28;20041;-95
2023/07/07 05:08:43;;;;;;;6.15;4.60;;;;;;;19.71;75.32;101824.72;4974446;28;20436;-93
2023/07/07 05:11:14;;;;;;;7.83;4.67;;;;;;;20.33;73.56;101818.28;4965548;28;20071;-95
2023/07/07 05:13:40;;;;;;;8.13;5.20;;;;;;;20.93;64.80;101824.75;4960763;28;20033;-92
2023/07/07 05:16:11;;;;;;;7.55;4.40;;;;;;;21.41;62.58;101839.81;4962342;28;20031;-93
2023/07/07 05:18:37;;;;;;;6.82;4.32;;;;;;;21.57;61.54;101838.34;4952291;28;20042;-92
2023/07/07 05:21:03;;;;;;;6.87;4.23;;;;;;;22.04;59.75;101848.19;4953587;28;20031;-93
2023/07/07 05:23:29;;;;;;;8.53;4.80;;;;;;;22.29;55.94;101829.53;4956857;28;20709;-96
2023/07/07 05:25:55;;;;;;;7.78;4.32;;;;;;;22.39;56.72;101821.09;4953610;28;20030;-91
2023/07/07 05:28:22;;;;;;;11.00;5.22;;;;;;;22.39;54.39;101824.59;4966045;28;20035;-91
2023/07/07 05:30:48;;;;;;;9.60;4.03;;;;;;;22.66;54.36;101850.13;4975181;28;20023;-93
2023/07/07 05:33:14;;;;;;;6.65;4.82;;;;;;;23.07;52.67;101853.63;4959871;28;20114;-91
2023/07/07 05:35:53;;;;;;;8.87;4.20;;;;;;;23.26;53.39;101844.34;4962173;28;20031;-93
2023/07/07 05:38:22;;;;;;;7.35;4.35;;;;;;;23.43;52.59;101847.09;4970282;28;20037;-94
2023/07/07 05:40:48;;;;;;;6.93;4.13;;;;;;;23.92;51.46;101845.28;4969879;28;20107;-94
2023/07/07 05:43:15;;;;;;;11.80;4.82;;;;;;;24.23;50.19;101850.56;4958664;28;20015;-92
2023/07/07 05:45:41;;;;;;;7.93;4.93;;;;;;;24.30;49.74;101837.16;4958372;28;20082;-93
2023/07/07 05:48:08;;;;;;;7.40;4.90;;;;;;;24.29;48.91;101853.94;4975284;28;20008;-94
2023/07/07 05:50:33;;;;;;;8.27;5.03;;;;;;;24.29;48.91;101854.72;4971630;28;20293;-93
2023/07/07 05:53:01;;;;;;;7.13;4.70;;;;;;;24.11;47.91;101839.47;4975528;28;20031;-86
2023/07/07 05:55:32;;;;;;;8.53;5.13;;;;;;;23.96;50.02;101854.47;4951450;28;20046;-84
2023/07/07 05:57:58;;;;;;;9.23;5.30;;;;;;;23.90;48.66;101853.84;4951490;28;20264;-84
2023/07/07 06:00:26;;;;;;;9.35;5.13;;;;;;;23.61;50.78;101849.81;4951211;28;20114;-85
2023/07/07 06:02:51;;;;;;;8.30;4.50;;;;;;;23.24;51.04;101857.53;4949226;28;20051;-85
2023/07/07 06:05:17;;;;;;;6.77;4.93;;;;;;;22.91;52.08;101852.47;4954574;28;20023;-84
2023/07/07 06:07:42;;;;;;;10.50;5.13;;;;;;;22.29;52.28;101840.44;4951464;28;20406;-85
2023/07/07 06:10:10;;;;;;;7.67;4.90;;;;;;;21.85;55.39;101832.81;4952046;28;20526;-85
2023/07/07 06:12:36;;;;;;;11.98;5.25;;;;;;;21.54;55.80;101838.16;4955060;28;20027;-86
2023/07/07 06:15:02;;;;;;;8.85;5.15;;;;;;;21.14;57.64;101838.78;4960843;28;20027;-87
2023/07/07 06:17:27;;;;;;;8.18;5.20;;;;;;;20.91;58.34;101844.16;4951492;28;20027;-85
2023/07/07 06:19:52;;;;;;;7.47;4.67;;;;;;;20.78;59.87;101844.97;4964435;28;20039;-84
2023/07/07 06:22:18;;;;;;;9.17;5.27;;;;;;;20.63;62.96;101849.59;4951928;28;20047;-84
2023/07/07 06:24:43;;;;;;;6.50;4.77;;;;;;;20.41;66.09;101851.06;4951193;28;20114;-84
2023/07/07 06:27:08;;;;;;;5.73;4.93;;;;;;;20.19;66.11;101840.03;4952159;28;20050;-85
2023/07/07 06:29:35;;;;;;;8.70;4.50;;;;;;;19.99;67.43;101839.25;4960912;28;20030;-85
2023/07/07 06:32:01;;;;;;;7.05;3.85;;;;;;;19.90;69.09;101846.50;4962407;28;20506;-86
2023/07/07 06:34:26;;;;;;;6.88;4.47;;;;;;;19.78;68.29;101845.00;4975596;28;20027;-85
2023/07/07 06:36:52;;;;;;;7.47;4.53;;;;;;;19.81;68.99;101841.69;4968585;28;20479;-85
2023/07/07 06:39:17;;;;;;;8.93;4.32;;;;;;;19.75;66.11;101837.41;4956461;28;20024;-85
2023/07/07 06:41:42;;;;;;;7.13;4.10;;;;;;;19.62;66.97;101844.44;4956285;28;20035;-86
2023/07/07 06:44:08;;;;;;;8.37;4.27;;;;;;;19.56;69.67;101837.44;4956292;28;20063;-85
2023/07/07 06:46:33;;;;;;;8.53;4.47;;;;;;;19.71;68.24;101847.28;4962471;28;20035;-86
2023/07/07 06:48:59;;;;;;;8.13;4.78;;;;;;;19.71;68.39;101852.72;4975841;28;20030;-85
2023/07/07 06:51:25;;;;;;;8.47;4.33;;;;;;;19.80;69.02;101844.72;4976198;28;20064;-89
2023/07/07 06:53:50;;;;;;;9.07;4.03;;;;;;;19.82;66.61;101856.06;4977191;28;20110;-89
2023/07/07 06:56:15;;;;;;;7.50;4.43;;;;;;;19.69;66.18;101854.94;4976471;28;20038;-91
2023/07/07 06:58:41;;;;;;;12.87;4.20;;;;;;;19.75;65.38;101859.19;4979519;28;20402;-90
2023/07/07 07:01:10;;;;;;;7.50;4.37;;;;;;;19.83;63.55;101863.97;4977217;28;20058;-89
2023/07/07 07:03:36;;;;;;;6.63;4.00;;;;;;;19.92;65.88;101860.56;4965201;28;20271;-90
2023/07/07 07:06:02;;;;;;;9.73;4.18;;;;;;;19.98;65.65;101873.00;4960836;28;20087;-86
2023/07/07 07:08:28;;;;;;;8.00;4.30;;;;;;;20.04;64.66;101855.50;4971311;28;20023;-86
2023/07/07 07:10:53;;;;;;;7.57;4.10;;;;;;;20.10;63.51;101859.75;4959356;29;20078;-86
2023/07/07 07:13:19;;;;;;;7.50;3.70;;;;;;;20.23;65.89;101863.59;4957909;28;20134;-88
2023/07/07 07:15:44;;;;;;;8.40;3.90;;;;;;;20.38;63.06;101873.44;4974354;28;20077;-88
2023/07/07 07:18:12;;;;;;;5.93;3.47;;;;;;;20.49;63.42;101865.91;4968977;28;20087;-89
2023/07/07 07:20:37;;;;;;;5.82;3.53;;;;;;;20.57;63.42;101870.63;4957388;28;20023;-88
2023/07/07 07:23:02;;;;;;;7.20;3.43;;;;;;;20.68;61.55;101863.06;4961421;28;20015;-88
2023/07/07 07:25:28;;;;;;;6.95;3.65;;;;;;;20.86;61.94;101875.03;4958013;28;20058;-86
2023/07/07 07:27:53;;;;;;;7.53;3.50;;;;;;;20.93;60.88;101868.34;4959406;28;20729;-89
2023/07/07 07:30:19;;;;;;;9.17;3.93;;;;;;;20.99;61.06;101876.13;4957339;28;20086;-86
2023/07/07 07:32:44;;;;;;;12.27;4.40;;;;;;;21.06;61.17;101874.91;4944267;28;20051;-87
2023/07/07 07:35:10;;;;;;;6.90;3.73;;;;;;;21.10;61.37;101873.19;4951719;28;20031;-84
2023/07/07 07:37:36;;;;;;;5.40;3.70;;;;;;;21.20;58.54;101869.44;4944648;28;20038;-86
2023/07/07 07:40:01;;;;;;;9.47;3.70;;;;;;;21.36;59.11;101872.66;4955731;28;20107;-85
2023/07/07 07:42:28;;;;;;;15.98;6.15;;;;;;;21.44;58.06;101867.28;4960652;28;20030;-85
2023/07/07 07:44:54;;;;;;;10.70;4.80;;;;;;;21.56;58.08;101863.22;4973837;28;20027;-86
2023/07/07 07:47:19;;;;;;;8.97;4.03;;;;;;;21.57;57.19;101878.47;4974783;28;20030;-86
2023/07/07 07:49:45;;;;;;;14.80;4.80;;;;;;;21.68;59.26;101868.16;4974179;28;20035;-85
2023/07/07 07:52:11;;;;;;;22.07;6.97;;;;;;;21.87;57.76;101874.25;4975729;28;20033;-86
2023/07/07 07:54:37;;;;;;;13.67;4.00;;;;;;;21.98;56.72;101876.72;4973704;28;20059;-87
2023/07/07 07:57:03;;;;;;;22.90;4.33;;;;;;;22.03;57.21;101877.38;4975311;28;20817;-86
2023/07/07 07:59:28;;;;;;;14.88;3.47;;;;;;;22.22;58.62;101874.47;4964061;28;20048;-87
2023/07/07 08:01:54;;;;;;;6.37;2.77;;;;;;;22.33;56.62;101885.13;4954909;28;20035;-86
2023/07/07 08:04:19;;;;;;;8.60;3.28;;;;;;;22.48;56.39;101884.75;4955207;28;20114;-86
2023/07/07 08:06:44;;;;;;;6.30;3.10;;;;;;;22.78;56.26;101882.31;4954664;28;20051;-86
2023/07/07 08:09:11;;;;;;;7.03;3.37;;;;;;;22.92;56.52;101884.13;4955386;28;20050;-86
2023/07/07 08:11:42;;;;;;;6.25;3.20;;;;;;;23.09;54.92;101886.13;4962833;28;20382;-86
2023/07/07 08:14:13;;;;;;;5.78;3.22;;;;;;;23.16;53.78;101891.09;4975977;28;20041;-86
2023/07/07 08:16:39;;;;;;;5.03;2.97;;;;;;;23.29;54.30;101887.47;4960360;28;20050;-86
2023/07/07 08:19:05;;;;;;;4.10;3.20;;;;;;;23.41;52.90;101875.91;4964223;28;20353;-85
2023/07/07 08:21:30;;;;;;;3.57;2.90;;;;;;;23.54;54.89;101876.88;4956399;28;20051;-87
2023/07/07 08:23:55;;;;;;;4.25;2.90;;;;;;;23.65;51.95;101880.88;4968497;28;20118;-86
2023/07/07 08:26:21;;;;;;;6.80;2.43;;;;;;;23.73;54.16;101887.47;4972826;28;20118;-86
2023/07/07 08:28:46;;;;;;;5.70;3.00;;;;;;;23.86;52.97;101878.28;4977103;28;20035;-86
2023/07/07 08:31:12;;;;;;;3.72;2.70;;;;;;;23.96;50.37;101884.56;4974342;28;20034;-85
2023/07/07 08:33:38;;;;;;;3.57;2.63;;;;;;;24.07;49.08;101885.88;4974250;28;20070;-86
2023/07/07 08:36:03;;;;;;;4.80;2.85;;;;;;;24.20;50.53;101881.34;4972617;28;20034;-86
2023/07/07 08:38:29;;;;;;;5.03;2.50;;;;;;;24.26;50.15;101885.53;4972742;28;20050;-86
2023/07/07 08:40:56;;;;;;;7.20;2.60;;;;;;;24.33;47.97;101885.00;4974564;28;20121;-86
2023/07/07 08:43:23;;;;;;;3.20;2.50;;;;;;;24.48;48.53;101887.22;4973235;28;20039;-86
2023/07/07 08:45:58;;;;;;;6.93;2.70;;;;;;;24.54;48.21;101887.03;4973018;28;20061;-86
2023/07/07 08:48:32;;;;;;;5.93;2.70;;;;;;;24.64;48.79;101889.41;4972839;28;20075;-86
2023/07/07 08:51:02;;;;;;;2.90;2.50;;;;;;;24.83;47.33;101880.81;4973703;28;20022;-87
2023/07/07 08:53:36;;;;;;;5.30;2.58;;;;;;;24.86;46.99;101893.84;4953310;28;20035;-85
2023/07/07 08:56:14;;;;;;;4.43;2.78;;;;;;;24.99;46.77;101883.00;4954242;28;20086;-87
2023/07/07 08:58:54;;;;;;;9.82;2.67;;;;;;;25.15;45.48;101886.78;4954245;28;20019;-86
2023/07/07 09:01:37;;;;;;;3.97;2.60;;;;;;;25.18;45.50;101893.50;4954636;28;20035;-84
2023/07/07 09:04:05;;;;;;;4.93;2.60;;;;;;;25.27;45.41;101890.72;4957692;28;20278;-86
2023/07/07 09:06:39;;;;;;;4.88;2.53;;;;;;;25.57;46.34;101887.94;4963052;28;20082;-86
2023/07/07 09:09:43;;;;;;;6.63;2.78;;;;;;;25.61;45.78;101884.19;4976041;28;20029;-86
2023/07/07 09:12:36;;;;;;;4.95;2.70;;;;;;;25.75;45.23;101885.84;4976310;28;20034;-86
2023/07/07 09:15:07;;;;;;;5.15;2.80;;;;;;;25.78;45.08;101883.22;4976278;28;20030;-86
2023/07/07 09:17:39;;;;;;;4.97;2.40;;;;;;;25.89;42.81;101880.88;4974803;28;20402;-87
2023/07/07 09:20:07;;;;;;;4.38;2.38;;;;;;;26.08;41.87;101882.31;4974567;28;20038;-86
2023/07/07 09:22:55;;;;;;;4.22;2.90;;;;;;;26.17;40.26;101879.50;4974438;28;20039;-85
2023/07/07 09:25:36;;;;;;;4.35;2.50;;;;;;;26.07;40.65;101864.22;4975759;28;20030;-88
2023/07/07 09:28:05;;;;;;;3.67;2.50;;;;;;;26.15;40.41;101871.59;4960610;28;20445;-85
2023/07/07 09:30:52;;;;;;;3.83;2.77;;;;;;;26.21;37.32;101870.22;4953589;28;20287;-86
2023/07/07 09:33:21;;;;;;;5.75;2.67;;;;;;;26.18;37.47;101870.94;4965294;28;20243;-85
2023/07/07 09:36:14;;;;;;;2.80;2.33;;;;;;;26.22;39.00;101876.53;4978914;28;20041;-86
2023/07/07 09:38:47;;;;;;;4.03;2.53;;;;;;;26.28;38.37;101875.97;4975107;28;20062;-85
2023/07/07 09:41:15;;;;;;;5.25;2.53;;;;;;;26.36;37.64;101874.28;4976722;28;20058;-86
2023/07/07 09:44:20;;;;;;;4.07;2.53;;;;;;;26.46;37.39;101870.28;4977118;28;20368;-85
2023/07/07 09:47:05;;;;;;;6.00;2.40;;;;;;;26.55;36.28;101867.41;4972462;28;20038;-83
2023/07/07 09:49:48;;;;;;;3.38;2.50;;;;;;;26.81;37.64;101869.84;4963177;28;20052;-86
2023/07/07 09:52:36;;;;;;;4.63;2.70;;;;;;;27.00;37.95;101869.28;4958337;28;20031;-85
2023/07/07 09:55:03;;;;;;;5.50;2.47;;;;;;;27.11;34.95;101863.28;4958092;28;20059;-85
2023/07/07 09:57:34;;;;;;;2.93;2.50;;;;;;;27.28;37.88;101853.97;4953557;28;20282;-86
2023/07/07 10:00:02;;;;;;;3.30;2.75;;;;;;;27.25;35.75;101860.16;4953880;28;20368;-85
2023/07/07 10:02:27;;;;;;;5.38;2.80;;;;;;;27.30;36.02;101860.72;4953044;28;20029;-86
2023/07/07 10:04:58;;;;;;;2.80;2.60;;;;;;;27.48;38.17;101857.72;4956278;28;20114;-86
2023/07/07 10:07:25;;;;;;;6.20;2.57;;;;;;;27.20;35.36;101844.72;4937467;28;20059;-86
2023/07/07 10:09:51;;;;;;;2.80;2.60;;;;;;;27.34;35.46;101858.06;4936634;28;20468;-86
2023/07/07 10:12:17;;;;;;;4.15;2.25;;;;;;;27.62;35.61;101857.31;4936843;29;20677;-86
2023/07/07 10:14:44;;;;;;;3.70;2.70;;;;;;;27.80;34.92;101850.34;4936866;29;20038;-86
2023/07/07 10:17:09;;;;;;;4.57;2.72;;;;;;;27.87;36.60;101832.41;4936703;28;20387;-86
2023/07/07 10:19:41;;;;;;;3.47;2.70;;;;;;;27.88;36.40;101845.03;4936926;29;20038;-85
2023/07/07 10:22:10;;;;;;;5.85;2.70;;;;;;;27.80;34.78;101835.78;4945748;28;20031;-87
2023/07/07 10:24:36;;;;;;;3.33;2.55;;;;;;;27.89;33.22;101838.38;4976160;28;20031;-84
2023/07/07 10:27:01;;;;;;;3.60;2.53;;;;;;;28.08;35.97;101846.75;4974054;28;20038;-85
2023/07/07 10:29:36;;;;;;;6.60;2.50;;;;;;;28.05;34.88;101841.16;4967385;28;20023;-84
2023/07/07 10:32:02;;;;;;;4.15;2.85;;;;;;;28.10;34.84;101830.69;4945426;29;20542;-88
2023/07/07 10:34:35;;;;;;;3.40;2.88;;;;;;;28.21;34.96;101830.19;4958958;28;20290;-90
2023/07/07 10:37:01;;;;;;;4.03;2.80;;;;;;;28.31;32.56;101837.09;4960338;28;20395;-88
2023/07/07 10:39:28;;;;;;;4.23;2.53;;;;;;;28.13;32.75;101839.41;4959161;28;20050;-89
2023/07/07 10:41:54;;;;;;;3.30;2.35;;;;;;;28.08;33.95;101824.72;4964154;28;20103;-88
2023/07/07 10:44:23;;;;;;;3.78;2.80;;;;;;;28.31;34.37;101842.59;4980908;28;20588;-87
2023/07/07 10:46:49;;;;;;;4.30;3.03;;;;;;;28.58;32.71;101837.34;4976316;28;20161;-87
2023/07/07 10:49:16;;;;;;;3.57;2.40;;;;;;;28.54;31.89;101834.50;4975506;28;20046;-88
2023/07/07 10:52:04;;;;;;;4.82;3.40;;;;;;;28.48;30.53;101835.94;4976515;28;20019;-87
2023/07/07 10:54:51;;;;;;;3.58;2.42;;;;;;;28.83;33.66;101835.19;4972573;28;20046;-87
2023/07/07 10:57:33;;;;;;;4.88;2.83;;;;;;;28.91;33.98;101831.44;4978401;28;20156;-88
2023/07/07 11:00:35;;;;;;;3.42;2.80;;;;;;;29.13;32.11;101832.69;4982305;28;20029;-87
2023/07/07 11:03:37;;;;;;;5.70;2.60;;;;;;;29.12;33.21;101828.34;4983749;28;20069;-89
2023/07/07 11:06:30;;;;;;;4.43;3.00;;;;;;;29.06;31.03;101815.19;4965250;28;20795;-86
2023/07/07 11:09:13;;;;;;;6.22;2.97;;;;;;;29.09;31.09;101822.75;4965154;29;20057;-87
2023/07/07 11:12:09;;;;;;;10.00;3.17;;;;;;;29.22;32.85;101823.38;4939013;29;20148;-88
2023/07/07 11:15:13;;;;;;;4.43;3.15;;;;;;;29.40;32.38;101829.31;4936052;29;20547;-87
2023/07/07 11:17:47;;;;;;;3.00;2.80;;;;;;;29.46;31.92;101828.66;4936924;28;20051;-88
2023/07/07 11:20:27;;;;;;;4.85;2.92;;;;;;;29.47;31.64;101823.94;4936744;29;20034;-87
2023/07/07 11:23:23;;;;;;;5.68;2.90;;;;;;;29.24;32.51;101826.59;4953210;28;20030;-87
2023/07/07 11:26:04;;;;;;;6.45;2.83;;;;;;;29.42;32.74;101813.19;4955825;28;20472;-87
2023/07/07 11:28:46;;;;;;;4.25;2.70;;;;;;;29.55;30.61;101814.63;4957268;28;20114;-89
2023/07/07 11:31:27;;;;;;;5.93;2.67;;;;;;;29.71;31.13;101805.44;4957894;28;20062;-89
2023/07/07 11:34:28;;;;;;;4.03;3.00;;;;;;;29.98;30.13;101800.81;4963224;28;20734;-89
2023/07/07 11:37:16;;;;;;;4.32;3.08;;;;;;;29.94;29.82;101799.94;5093311;23;20054;-89
2023/07/07 11:40:09;;;;;;;4.20;3.25;;;;;;;29.72;28.68;101802.31;4984971;28;20031;-88
2023/07/07 11:42:49;;;;;;;3.03;2.72;;;;;;;29.68;28.89;101806.97;4978565;28;20106;-90
2023/07/07 11:45:36;;;;;;;3.22;2.92;;;;;;;29.85;29.32;101800.19;4974208;28;20099;-89
2023/07/07 11:48:31;;;;;;;4.65;2.72;;;;;;;29.91;30.02;101801.44;4958686;29;20046;-90
2023/07/07 11:51:10;;;;;;;4.47;2.95;;;;;;;29.95;28.63;101790.47;4963964;28;20031;-88